Time;durP1;ratioP1;P1;durP2;ratioP2;P2;SDS_P1;SDS_P2;PMS_P1;PMS_P2;Temp;Humidity;BMP_temperature;BMP_pressure;BME280_temperature;BME280_humidity;BME280_pressure;Samples;Min_cycle;Max_cycle;Signal;HPM_P1;HPM_P2
2021/08/10 00:01:49;;;;;;;3.00;2.60;;;;;;;21.32;64.73;101034.22;4936697;29;20061;-63
2021/08/10 00:04:15;;;;;;;3.08;2.55;;;;;;;21.33;64.45;101035.03;4950140;29;20039;-63
2021/08/10 00:06:40;;;;;;;4.20;2.58;;;;;;;21.33;64.43;101033.19;4947733;29;20094;-64
2021/08/10 00:09:06;;;;;;;3.38;2.60;;;;;;;21.32;64.49;101028.88;4949825;28;20039;-63
2021/08/10 00:11:31;;;;;;;4.05;2.92;;;;;;;21.32;64.28;101031.53;4953321;29;20477;-63
2021/08/10 00:13:57;;;;;;;3.65;2.78;;;;;;;21.32;64.68;101034.22;4919866;29;20493;-63
2021/08/10 00:16:22;;;;;;;4.28;3.10;;;;;;;21.32;64.25;101034.22;4935600;29;20503;-64
2021/08/10 00:18:48;;;;;;;3.55;2.78;;;;;;;21.32;64.47;101031.53;4925433;29;20101;-63
2021/08/10 00:21:13;;;;;;;4.30;2.65;;;;;;;21.32;64.49;101026.22;4936146;29;20066;-63
2021/08/10 00:23:39;;;;;;;3.35;2.60;;;;;;;21.32;64.50;101028.88;4935744;29;20062;-63
2021/08/10 00:26:04;;;;;;;3.55;2.47;;;;;;;21.32;64.46;101030.72;4953786;29;20043;-63
2021/08/10 00:28:29;;;;;;;4.82;2.60;;;;;;;21.33;64.58;101043.03;4935716;29;20043;-63
2021/08/10 00:30:55;;;;;;;4.03;2.83;;;;;;;21.32;64.30;101038.72;4936121;29;20078;-63
2021/08/10 00:33:20;;;;;;;3.67;2.55;;;;;;;21.32;64.50;101047.56;4953140;28;20051;-64
2021/08/10 00:35:46;;;;;;;3.33;2.45;;;;;;;21.32;64.47;101046.75;4936143;29;20043;-65
2021/08/10 00:38:11;;;;;;;3.38;2.55;;;;;;;21.31;64.53;101051.25;4942113;29;20117;-63
2021/08/10 00:40:39;;;;;;;3.60;2.50;;;;;;;21.32;64.78;101060.06;4951627;29;20058;-63
2021/08/10 00:43:33;;;;;;;3.78;2.50;;;;;;;21.28;64.65;101056.97;4953487;29;20489;-63
2021/08/10 00:45:59;;;;;;;3.70;2.45;;;;;;;21.31;64.63;101056.59;4952712;29;20035;-63
2021/08/10 00:48:24;;;;;;;3.03;2.10;;;;;;;21.32;64.16;101060.06;4950011;29;20044;-64
2021/08/10 00:50:50;;;;;;;4.47;2.60;;;;;;;21.32;64.59;101058.22;4952953;29;20042;-64
2021/08/10 00:53:16;;;;;;;2.97;2.40;;;;;;;21.31;64.33;101064.59;4952654;29;20081;-63
2021/08/10 00:55:41;;;;;;;5.00;3.28;;;;;;;21.31;64.51;101059.25;4935714;29;20043;-64
2021/08/10 00:58:07;;;;;;;4.45;2.90;;;;;;;21.31;64.56;101064.59;4943935;29;20587;-63
2021/08/10 01:00:33;;;;;;;3.15;2.50;;;;;;;21.32;64.50;101073.41;4952012;29;20063;-63
2021/08/10 01:02:59;;;;;;;3.58;2.80;;;;;;;21.32;64.30;101070.75;4951990;29;20042;-63
2021/08/10 01:05:28;;;;;;;3.40;2.60;;;;;;;21.30;64.43;101060.25;4936227;29;20047;-63
2021/08/10 01:08:04;;;;;;;3.97;2.80;;;;;;;21.31;63.99;101063.78;4925088;29;20040;-63
2021/08/10 01:10:34;;;;;;;4.15;2.50;;;;;;;21.31;63.99;101069.09;4953583;29;20449;-63
2021/08/10 01:13:24;;;;;;;3.42;2.40;;;;;;;21.30;64.09;101064.78;4951776;29;20153;-63
2021/08/10 01:16:17;;;;;;;3.72;2.50;;;;;;;21.27;64.38;101068.66;4952580;29;20511;-64
2021/08/10 01:19:30;;;;;;;4.13;2.80;;;;;;;21.25;64.33;101070.72;4924109;29;20165;-63
2021/08/10 01:21:58;;;;;;;;;;;;;;;21.20;64.22;101073.16;4943654;29;20037;-63
2021/08/10 01:24:28;;;;;;;2.78;2.28;;;;;;;21.27;63.97;101070.50;4952484;29;19969;-63
2021/08/10 01:27:02;;;;;;;4.15;2.78;;;;;;;21.29;64.21;101077.28;4950808;29;20031;-63
2021/08/10 01:29:38;;;;;;;2.97;2.17;;;;;;;21.28;64.03;101070.31;4952747;29;20039;-64
2021/08/10 01:32:04;;;;;;;5.70;2.67;;;;;;;21.29;64.15;101081.81;4943726;29;20051;-63
2021/08/10 01:34:35;;;;;;;4.30;2.15;;;;;;;21.29;64.18;101084.47;4931557;29;20050;-64
2021/08/10 01:37:05;;;;;;;4.45;2.67;;;;;;;21.29;63.83;101081.81;4943375;29;20043;-64
2021/08/10 01:39:34;;;;;;;4.00;2.63;;;;;;;21.29;63.72;101085.28;4951567;29;20090;-63
2021/08/10 01:42:00;;;;;;;3.58;2.22;;;;;;;21.29;63.80;101087.97;4951536;29;20039;-64
2021/08/10 01:44:27;;;;;;;5.53;2.53;;;;;;;21.29;63.71;101095.16;4951361;29;20046;-63
2021/08/10 01:46:55;;;;;;;4.05;2.33;;;;;;;21.28;63.84;101083.66;4952091;29;20035;-65
2021/08/10 01:49:23;;;;;;;2.90;2.40;;;;;;;21.28;64.16;101085.50;4951268;29;20035;-63
2021/08/10 01:51:51;;;;;;;3.08;2.42;;;;;;;21.29;63.54;101092.47;4931110;29;20125;-63
2021/08/10 01:54:18;;;;;;;2.70;2.20;;;;;;;21.28;63.74;101091.66;4951464;29;20043;-63
2021/08/10 01:56:43;;;;;;;3.67;2.22;;;;;;;21.28;63.61;101097.00;4951907;29;20130;-64
2021/08/10 01:59:09;;;;;;;3.22;2.35;;;;;;;21.28;63.95;101097.00;4952579;29;20400;-63
2021/08/10 02:01:40;;;;;;;4.30;2.60;;;;;;;21.27;63.71;101095.34;4928916;29;20039;-63
2021/08/10 02:04:07;;;;;;;3.15;2.40;;;;;;;21.29;63.88;101095.16;4950401;29;20039;-64
2021/08/10 02:06:34;;;;;;;3.97;2.53;;;;;;;21.29;63.72;101103.16;4951210;29;20043;-63
2021/08/10 02:09:01;;;;;;;3.55;2.60;;;;;;;21.29;63.61;101103.16;4948012;29;20038;-63
2021/08/10 02:11:28;;;;;;;3.38;2.33;;;;;;;21.29;63.79;101103.97;4945370;29;20046;-63
2021/08/10 02:13:56;;;;;;;2.95;2.20;;;;;;;21.28;63.79;101105.00;4951548;29;20533;-63
2021/08/10 02:16:24;;;;;;;3.38;2.25;;;;;;;21.28;63.91;101099.66;4948588;29;20102;-63
2021/08/10 02:18:50;;;;;;;3.67;2.67;;;;;;;21.27;63.71;101103.34;4914854;29;20126;-63
2021/08/10 02:21:25;;;;;;;3.53;2.40;;;;;;;21.26;63.77;101109.72;4942764;29;20067;-63
2021/08/10 02:23:58;;;;;;;5.25;2.03;;;;;;;21.27;63.65;101108.69;4950553;29;20027;-63
2021/08/10 02:26:23;;;;;;;3.45;2.50;;;;;;;21.27;63.71;101111.34;4951141;29;20031;-63
2021/08/10 02:28:50;;;;;;;3.50;2.40;;;;;;;21.29;63.84;101114.66;4934356;29;20047;-63
2021/08/10 02:31:16;;;;;;;3.35;2.40;;;;;;;21.28;63.75;101117.50;4951243;28;20058;-63
2021/08/10 02:33:43;;;;;;;2.28;2.00;;;;;;;21.28;63.78;101120.19;4933620;29;20074;-63
2021/08/10 02:36:09;;;;;;;2.90;2.35;;;;;;;21.27;63.68;101119.38;4931180;29;20042;-63
2021/08/10 02:38:37;;;;;;;2.85;2.30;;;;;;;21.28;63.55;101120.19;4949791;29;20500;-63
2021/08/10 02:41:04;;;;;;;3.92;2.58;;;;;;;21.27;63.53;101124.69;4942470;29;20035;-63
2021/08/10 02:43:32;;;;;;;4.53;2.50;;;;;;;21.27;63.67;101123.88;4950896;29;20039;-63
2021/08/10 02:45:57;;;;;;;3.50;2.53;;;;;;;21.27;63.45;101127.38;4949816;29;20180;-64
2021/08/10 02:48:29;;;;;;;3.40;2.35;;;;;;;21.26;63.35;101133.72;4934263;29;20517;-64
2021/08/10 02:50:54;;;;;;;3.13;2.38;;;;;;;21.26;63.87;101136.41;4934803;29;20135;-63
2021/08/10 02:53:20;;;;;;;3.17;2.42;;;;;;;21.26;63.64;101140.91;4950788;29;20513;-63
2021/08/10 02:55:54;;;;;;;2.63;2.20;;;;;;;21.25;63.68;101145.44;4948261;29;20043;-65
2021/08/10 02:58:24;;;;;;;3.15;2.20;;;;;;;21.26;63.50;101146.25;4936107;29;20042;-63
2021/08/10 03:00:56;;;;;;;3.75;2.10;;;;;;;21.25;63.47;101148.09;4952112;28;20042;-63
2021/08/10 03:03:29;;;;;;;3.30;2.03;;;;;;;21.25;63.72;101150.75;4933601;29;20473;-64
2021/08/10 03:05:57;;;;;;;3.95;2.10;;;;;;;21.26;63.65;101152.41;4947237;29;20472;-63
2021/08/10 03:08:28;;;;;;;3.00;2.13;;;;;;;21.26;63.70;101156.91;4950308;29;20039;-63
2021/08/10 03:10:55;;;;;;;3.33;2.40;;;;;;;21.26;63.49;101147.06;4950981;29;20036;-63
2021/08/10 03:13:22;;;;;;;4.53;2.15;;;;;;;21.26;63.82;101151.59;4950648;29;20124;-63
2021/08/10 03:15:52;;;;;;;3.45;2.40;;;;;;;21.25;63.42;101156.09;4943858;29;20135;-64
2021/08/10 03:18:21;;;;;;;3.55;2.40;;;;;;;21.25;63.70;101155.28;4951159;29;20039;-64
2021/08/10 03:20:48;;;;;;;3.42;2.10;;;;;;;21.26;63.54;101156.91;4950466;29;20039;-64
2021/08/10 03:23:16;;;;;;;3.10;2.47;;;;;;;21.26;63.57;101159.59;4950383;29;20040;-63
2021/08/10 03:25:44;;;;;;;3.80;2.47;;;;;;;21.26;63.32;101159.59;4945743;29;20055;-64
2021/08/10 03:28:12;;;;;;;2.83;2.13;;;;;;;21.27;63.33;101169.25;4948142;29;20106;-64
2021/08/10 03:30:40;;;;;;;2.50;2.05;;;;;;;21.26;63.16;101164.94;4951020;29;20035;-64
2021/08/10 03:33:07;;;;;;;3.58;2.20;;;;;;;21.24;63.32;101170.44;4949088;28;20138;-64
2021/08/10 03:35:33;;;;;;;3.25;2.00;;;;;;;21.25;63.39;101171.28;4945096;29;20039;-63
2021/08/10 03:37:59;;;;;;;4.00;2.90;;;;;;;21.25;63.60;101171.28;4933387;29;20366;-63
2021/08/10 03:40:25;;;;;;;2.33;2.10;;;;;;;21.25;63.28;101177.44;4950424;29;20399;-64
2021/08/10 03:42:51;;;;;;;3.55;2.10;;;;;;;21.24;63.08;101178.44;4950063;28;20031;-64
2021/08/10 03:45:19;;;;;;;3.40;2.08;;;;;;;21.25;63.44;101176.63;4932718;29;20054;-66
2021/08/10 03:47:45;;;;;;;2.85;2.05;;;;;;;21.23;63.16;101176.78;4951419;29;20039;-64
2021/08/10 03:50:12;;;;;;;2.50;2.10;;;;;;;21.24;63.01;101175.78;4954140;29;20062;-63
2021/08/10 03:52:38;;;;;;;3.88;2.42;;;;;;;21.25;63.18;101181.97;4936950;29;20106;-63
2021/08/10 03:55:04;;;;;;;2.83;2.17;;;;;;;21.25;63.23;101181.97;4951953;29;20473;-63
2021/08/10 03:57:32;;;;;;;4.28;2.50;;;;;;;21.23;63.33;101188.28;4954404;29;20042;-63
2021/08/10 03:59:59;;;;;;;2.72;2.33;;;;;;;21.23;63.09;101190.97;4947030;29;20035;-63
2021/08/10 04:02:26;;;;;;;3.20;2.22;;;;;;;21.23;63.30;101185.63;4952649;29;20031;-63
2021/08/10 04:04:55;;;;;;;3.00;2.47;;;;;;;21.23;63.00;101185.63;4935804;29;20039;-63
2021/08/10 04:07:21;;;;;;;2.72;2.10;;;;;;;21.23;63.12;101182.13;4951368;29;20465;-63
2021/08/10 04:09:48;;;;;;;3.03;2.30;;;;;;;21.23;63.28;101187.47;4952524;29;20051;-64
2021/08/10 04:12:14;;;;;;;2.88;2.13;;;;;;;21.24;63.32;101191.78;4953278;29;20043;-63
2021/08/10 04:14:40;;;;;;;3.22;2.35;;;;;;;21.22;62.99;101183.97;4952902;29;20046;-63
2021/08/10 04:17:07;;;;;;;3.83;2.47;;;;;;;21.23;63.20;101193.63;4948090;29;20481;-63
2021/08/10 04:19:35;;;;;;;2.90;2.28;;;;;;;21.23;62.82;101187.47;4946918;29;20062;-63
2021/08/10 04:22:02;;;;;;;4.25;2.20;;;;;;;21.22;63.23;101199.16;4952862;29;20046;-64
2021/08/10 04:24:27;;;;;;;3.38;2.50;;;;;;;21.23;62.79;101195.47;4952151;29;20481;-63
2021/08/10 04:26:53;;;;;;;3.47;2.60;;;;;;;21.22;63.22;101188.50;4946928;29;20041;-63
2021/08/10 04:29:19;;;;;;;3.20;2.50;;;;;;;21.22;62.90;101199.16;4925936;29;20708;-64
2021/08/10 04:31:44;;;;;;;3.63;2.40;;;;;;;21.22;63.18;101196.50;4935677;29;20035;-63
2021/08/10 04:34:09;;;;;;;3.72;2.22;;;;;;;21.22;63.00;101202.66;4936242;29;20436;-63
2021/08/10 04:36:35;;;;;;;3.03;2.30;;;;;;;21.21;62.63;101203.69;4949236;29;20039;-63
2021/08/10 04:39:01;;;;;;;3.13;2.40;;;;;;;21.21;62.83;101208.19;4919280;29;20039;-63
2021/08/10 04:41:27;;;;;;;3.00;2.30;;;;;;;21.21;62.94;101203.69;4953751;29;20082;-63
2021/08/10 04:43:53;;;;;;;3.78;2.35;;;;;;;21.21;62.87;101205.53;4953120;29;20098;-64
2021/08/10 04:46:19;;;;;;;2.92;2.30;;;;;;;21.21;62.96;101201.00;4947574;29;20109;-63
2021/08/10 04:48:45;;;;;;;3.80;2.33;;;;;;;21.21;62.80;101202.84;4935832;29;20047;-63
2021/08/10 04:51:12;;;;;;;3.67;2.40;;;;;;;21.20;62.73;101212.69;4953157;29;20043;-63
2021/08/10 04:53:38;;;;;;;2.67;2.40;;;;;;;21.20;62.70;101209.22;4952429;29;20070;-63
2021/08/10 04:56:04;;;;;;;4.07;2.40;;;;;;;21.21;62.65;101209.00;4952577;28;20125;-63
2021/08/10 04:58:30;;;;;;;2.63;2.35;;;;;;;21.20;62.76;101210.03;4952928;29;20489;-63
2021/08/10 05:00:56;;;;;;;3.28;2.70;;;;;;;21.21;62.74;101216.19;4935089;29;20047;-63
2021/08/10 05:03:21;;;;;;;3.17;2.25;;;;;;;21.20;62.85;101218.03;4946342;29;20788;-63
2021/08/10 05:05:48;;;;;;;3.55;2.30;;;;;;;21.21;63.06;101226.88;4948826;29;20054;-63
2021/08/10 05:08:15;;;;;;;2.70;2.22;;;;;;;21.21;62.96;101227.69;4952384;29;20076;-63
2021/08/10 05:10:42;;;;;;;3.20;2.40;;;;;;;21.20;62.96;101218.03;4925926;29;20074;-63
2021/08/10 05:13:07;;;;;;;3.80;2.70;;;;;;;21.20;62.91;101219.88;4942500;29;20037;-64
2021/08/10 05:15:33;;;;;;;3.88;2.83;;;;;;;21.20;62.83;101233.22;4946727;29;20044;-63
2021/08/10 05:17:58;;;;;;;3.20;2.60;;;;;;;21.20;62.83;101241.22;4929954;29;20039;-63
2021/08/10 05:20:23;;;;;;;2.75;2.30;;;;;;;21.19;62.73;101240.41;4952775;29;20031;-64
2021/08/10 05:22:49;;;;;;;3.13;2.50;;;;;;;21.20;62.91;101249.22;4952230;29;20037;-63
2021/08/10 05:25:14;;;;;;;3.78;2.33;;;;;;;21.19;62.66;101252.91;4913736;29;20052;-63
2021/08/10 05:27:40;;;;;;;3.10;2.53;;;;;;;21.20;62.88;101243.91;4932278;29;20090;-63
2021/08/10 05:30:06;;;;;;;3.72;2.58;;;;;;;21.20;62.74;101257.25;4941942;29;20047;-63
2021/08/10 05:32:31;;;;;;;3.30;2.65;;;;;;;21.19;62.81;101251.06;4934168;29;20158;-63
2021/08/10 05:34:57;;;;;;;4.20;2.60;;;;;;;21.19;62.99;101260.94;4948675;29;20138;-63
2021/08/10 05:37:22;;;;;;;3.28;2.67;;;;;;;21.19;62.92;101260.94;4948321;29;20421;-63
2021/08/10 05:39:48;;;;;;;4.85;2.75;;;;;;;21.19;63.01;101271.59;4935166;29;20043;-63
2021/08/10 05:42:13;;;;;;;3.25;2.55;;;;;;;21.18;63.01;101262.78;4934815;29;20111;-63
2021/08/10 05:44:39;;;;;;;4.60;2.92;;;;;;;21.19;62.93;101263.59;4934117;29;20035;-63
2021/08/10 05:47:04;;;;;;;3.17;2.60;;;;;;;21.17;62.75;101263.78;4943827;29;20484;-63
2021/08/10 05:49:29;;;;;;;4.03;2.80;;;;;;;21.18;63.00;101265.44;4952099;29;20046;-63
2021/08/10 05:51:56;;;;;;;2.90;2.35;;;;;;;21.18;62.56;101267.28;4951774;29;20031;-65
2021/08/10 05:54:21;;;;;;;4.25;2.80;;;;;;;21.18;63.00;101268.09;4951887;29;20035;-63
2021/08/10 05:56:47;;;;;;;5.25;3.30;;;;;;;21.17;63.14;101263.78;4948572;29;20043;-65
2021/08/10 05:59:13;;;;;;;4.32;2.90;;;;;;;21.17;62.68;101277.13;4951613;29;20038;-63
2021/08/10 06:01:38;;;;;;;4.68;2.80;;;;;;;21.18;62.55;101269.94;4950647;29;20501;-65
2021/08/10 06:04:05;;;;;;;5.75;2.53;;;;;;;21.19;62.95;101271.59;4951518;29;20043;-67
2021/08/10 06:06:34;;;;;;;4.30;2.92;;;;;;;21.19;63.01;101271.59;4928896;29;20034;-64
2021/08/10 06:09:02;;;;;;;5.45;2.70;;;;;;;21.19;62.99;101268.94;4950922;29;20082;-65
2021/08/10 06:11:28;;;;;;;6.45;2.58;;;;;;;21.19;62.90;101271.59;4951342;29;20039;-63
2021/08/10 06:13:53;;;;;;;4.10;2.67;;;;;;;21.20;63.13;101278.56;4952025;29;20046;-63
2021/08/10 06:16:19;;;;;;;5.18;2.70;;;;;;;21.19;62.94;101272.41;4944924;29;20442;-65
2021/08/10 06:18:44;;;;;;;7.63;2.95;;;;;;;21.20;63.27;101271.41;4934367;29;20043;-64
2021/08/10 06:21:10;;;;;;;11.90;3.22;;;;;;;21.20;63.31;101266.06;4918033;29;20062;-64
2021/08/10 06:23:35;;;;;;;9.68;3.92;;;;;;;21.20;63.56;101267.91;4951159;29;20058;-64
2021/08/10 06:26:01;;;;;;;13.75;3.40;;;;;;;21.21;63.23;101269.56;4950813;29;20027;-65
2021/08/10 06:28:26;;;;;;;5.50;2.95;;;;;;;21.20;63.51;101263.41;4951159;29;20660;-63
2021/08/10 06:30:52;;;;;;;11.05;3.35;;;;;;;21.21;63.43;101270.38;4934261;29;20043;-64
2021/08/10 06:33:17;;;;;;;7.07;3.25;;;;;;;21.21;63.67;101267.72;4950671;28;20153;-62
2021/08/10 06:35:43;;;;;;;8.57;2.92;;;;;;;21.21;63.35;101273.03;4945208;29;20380;-62
2021/08/10 06:38:08;;;;;;;7.22;3.30;;;;;;;21.21;63.53;101272.22;4933023;29;20047;-64
2021/08/10 06:40:34;;;;;;;6.13;3.72;;;;;;;21.21;63.84;101273.03;4951030;29;20038;-64
2021/08/10 06:42:59;;;;;;;10.02;3.35;;;;;;;21.21;63.44;101278.38;4951017;29;20035;-65
2021/08/10 06:45:25;;;;;;;5.95;3.05;;;;;;;21.22;63.76;101279.19;4933439;29;20039;-64
2021/08/10 06:47:52;;;;;;;9.88;3.35;;;;;;;21.22;63.98;101279.19;4948147;28;20046;-65
2021/08/10 06:50:18;;;;;;;14.30;3.35;;;;;;;21.24;64.06;101282.50;4926573;29;20126;-65
2021/08/10 06:52:44;;;;;;;7.63;3.45;;;;;;;21.23;64.07;101272.84;4950866;29;20039;-65
2021/08/10 06:55:10;;;;;;;9.73;3.38;;;;;;;21.22;63.94;101274.69;4933889;29;20070;-65
2021/08/10 06:57:38;;;;;;;7.03;3.63;;;;;;;21.23;64.36;101287.00;4933156;29;20489;-65
2021/08/10 07:00:04;;;;;;;7.55;3.53;;;;;;;21.23;64.07;101283.53;4937996;29;20039;-65
2021/08/10 07:02:30;;;;;;;8.23;3.60;;;;;;;21.23;64.05;101283.53;4942416;29;20151;-65
2021/08/10 07:04:55;;;;;;;4.50;2.72;;;;;;;21.22;63.99;101293.38;4950450;29;20118;-65
2021/08/10 07:07:20;;;;;;;7.15;3.22;;;;;;;21.21;64.21;101294.38;4960039;28;20045;-65
2021/08/10 07:09:46;;;;;;;6.75;3.30;;;;;;;21.21;64.05;101293.56;4951907;28;20346;-65
2021/08/10 07:12:11;;;;;;;8.35;3.47;;;;;;;21.21;63.57;101298.91;4950814;29;20031;-64
2021/08/10 07:14:37;;;;;;;9.85;3.45;;;;;;;21.21;63.67;101293.56;4930818;29;20030;-64
2021/08/10 07:17:02;;;;;;;12.52;3.25;;;;;;;21.21;63.65;101294.38;4932695;29;20116;-65
2021/08/10 07:19:28;;;;;;;7.72;3.30;;;;;;;21.21;63.79;101296.25;4954077;28;20031;-72
2021/08/10 07:21:53;;;;;;;8.25;3.75;;;;;;;21.19;63.81;101293.75;4952598;29;20408;-66
2021/08/10 07:24:19;;;;;;;7.45;3.35;;;;;;;21.19;63.61;101291.09;4933796;29;20055;-67
2021/08/10 07:26:45;;;;;;;6.68;3.40;;;;;;;21.20;63.21;101297.25;4949415;29;20048;-64
2021/08/10 07:29:10;;;;;;;10.10;3.50;;;;;;;21.19;63.10;101295.63;4916816;29;20489;-65
2021/08/10 07:31:36;;;;;;;7.88;3.97;;;;;;;21.19;63.14;101295.63;4953784;29;20054;-65
2021/08/10 07:34:01;;;;;;;15.40;4.03;;;;;;;21.18;62.93;101293.97;4952798;29;20222;-66
2021/08/10 07:36:27;;;;;;;10.95;4.00;;;;;;;21.16;62.50;101291.50;4943826;29;20070;-65
2021/08/10 07:38:52;;;;;;;7.78;4.00;;;;;;;21.13;62.18;101289.19;4932156;29;20055;-66
2021/08/10 07:41:18;;;;;;;11.70;3.95;;;;;;;21.12;62.14;101292.88;4953670;29;20090;-65
2021/08/10 07:43:43;;;;;;;9.88;4.20;;;;;;;21.10;61.77;101291.44;4949675;29;20093;-66
2021/08/10 07:46:09;;;;;;;13.00;4.28;;;;;;;21.09;61.67;101289.78;4928413;28;20109;-65
2021/08/10 07:48:35;;;;;;;9.90;4.05;;;;;;;21.08;61.45;101293.47;4918090;29;20047;-65
2021/08/10 07:51:01;;;;;;;10.18;3.92;;;;;;;21.07;61.31;101297.16;4944841;29;20035;-65
2021/08/10 07:53:26;;;;;;;8.18;3.20;;;;;;;21.04;61.18;101293.06;4953850;29;20554;-65
2021/08/10 07:55:52;;;;;;;9.13;3.92;;;;;;;21.03;61.25;101285.25;4953872;29;20043;-66
2021/08/10 07:58:18;;;;;;;10.48;3.28;;;;;;;21.04;61.06;101290.38;4954386;29;20035;-67
2021/08/10 08:00:44;;;;;;;7.07;3.40;;;;;;;21.04;61.32;101289.56;4934762;29;20441;-67
2021/08/10 08:03:12;;;;;;;8.57;3.33;;;;;;;21.04;60.86;101290.38;4950692;29;20050;-67
2021/08/10 08:05:38;;;;;;;8.48;2.97;;;;;;;21.03;60.87;101285.25;4954086;29;20090;-66
2021/08/10 08:08:04;;;;;;;10.95;2.97;;;;;;;21.01;60.90;101282.78;4952631;29;20047;-67
2021/08/10 08:10:30;;;;;;;6.88;2.90;;;;;;;21.01;60.43;101288.09;4954244;29;20111;-66
2021/08/10 08:12:56;;;;;;;5.05;2.72;;;;;;;21.01;60.59;101287.28;4936476;29;20436;-66
2021/08/10 08:15:21;;;;;;;7.63;2.65;;;;;;;21.00;60.29;101293.63;4953550;29;20548;-66
2021/08/10 08:17:47;;;;;;;8.02;2.72;;;;;;;20.99;60.19;101289.28;4953561;29;20050;-66
2021/08/10 08:20:14;;;;;;;5.85;2.70;;;;;;;20.98;60.28;101288.47;4953667;29;20346;-66
2021/08/10 08:22:39;;;;;;;8.13;2.30;;;;;;;20.98;59.90;101292.97;4954042;29;20031;-66
2021/08/10 08:25:05;;;;;;;10.07;3.22;;;;;;;20.98;60.15;101296.47;4952989;28;20392;-66
2021/08/10 08:27:31;;;;;;;8.95;2.40;;;;;;;20.97;59.90;101302.81;4936801;29;20035;-66
2021/08/10 08:29:57;;;;;;;8.07;2.30;;;;;;;20.98;59.85;101298.31;4952918;28;20377;-66
2021/08/10 08:32:22;;;;;;;7.32;2.20;;;;;;;20.98;59.81;101308.97;4952651;29;20078;-66
2021/08/10 08:34:48;;;;;;;5.40;2.35;;;;;;;20.97;59.50;101310.00;4953704;29;20031;-66
2021/08/10 08:37:14;;;;;;;6.30;2.55;;;;;;;20.96;59.60;101308.34;4935979;29;20039;-66
2021/08/10 08:39:39;;;;;;;5.35;2.35;;;;;;;20.95;59.50;101307.53;4953431;29;20039;-66
2021/08/10 08:42:05;;;;;;;6.10;2.22;;;;;;;20.95;59.13;101304.88;4953824;29;20397;-66
2021/08/10 08:44:37;;;;;;;5.53;1.90;;;;;;;20.97;59.03;101302.00;4936058;29;20490;-66
2021/08/10 08:47:07;;;;;;;4.60;2.15;;;;;;;20.97;59.26;101313.50;4953333;29;20035;-66
2021/08/10 08:49:34;;;;;;;3.20;2.20;;;;;;;20.98;59.00;101317.81;4953323;29;20478;-67
2021/08/10 08:52:02;;;;;;;6.78;2.15;;;;;;;21.00;59.23;101325.66;4952884;29;20118;-66
2021/08/10 08:54:33;;;;;;;4.65;2.00;;;;;;;20.98;59.10;101317.81;4952370;29;20039;-66
2021/08/10 08:56:59;;;;;;;4.63;2.17;;;;;;;21.00;59.17;101321.13;4953010;29;20074;-66
2021/08/10 08:59:25;;;;;;;5.30;2.30;;;;;;;21.01;58.93;101321.97;4953094;29;20027;-66
2021/08/10 09:01:52;;;;;;;6.63;2.58;;;;;;;21.01;58.95;101320.13;4951915;29;20114;-66
2021/08/10 09:04:18;;;;;;;9.55;2.67;;;;;;;21.01;58.98;101324.63;4953236;29;20039;-66
2021/08/10 09:06:44;;;;;;;6.25;2.17;;;;;;;21.01;59.19;101321.97;4952723;29;20039;-66
2021/08/10 09:09:23;;;;;;;7.95;2.63;;;;;;;20.99;58.89;101321.31;4952653;29;20442;-66
2021/08/10 09:12:07;;;;;;;3.40;2.00;;;;;;;21.02;59.13;101321.75;4952969;29;20038;-66
2021/08/10 09:14:53;;;;;;;6.47;2.22;;;;;;;20.98;58.70;101319.66;4953288;28;20134;-67
2021/08/10 09:17:21;;;;;;;4.93;2.15;;;;;;;21.02;58.74;101327.09;4952615;29;20047;-66
2021/08/10 09:19:55;;;;;;;4.57;1.80;;;;;;;21.01;58.80;101321.97;4952652;29;20114;-66
2021/08/10 09:22:30;;;;;;;4.45;2.10;;;;;;;20.99;58.69;101318.63;4952797;29;20123;-66
2021/08/10 09:25:02;;;;;;;5.55;2.40;;;;;;;21.01;58.49;101322.78;4952581;29;20112;-66
2021/08/10 09:27:37;;;;;;;4.40;2.00;;;;;;;21.02;58.52;101326.28;4952157;29;20102;-66
2021/08/10 09:30:06;;;;;;;5.05;2.20;;;;;;;21.03;58.65;101327.91;4952890;29;20039;-66
2021/08/10 09:32:32;;;;;;;6.95;2.38;;;;;;;21.01;58.46;101322.78;4934296;29;20366;-66
2021/08/10 09:35:21;;;;;;;4.65;2.22;;;;;;;20.98;58.51;101323.16;4952979;29;20042;-66
2021/08/10 09:38:05;;;;;;;4.07;2.25;;;;;;;20.97;58.56;101326.84;4952047;29;20037;-66
2021/08/10 09:40:39;;;;;;;6.75;2.30;;;;;;;21.02;58.28;101326.28;4952494;28;20038;-66
2021/08/10 09:43:18;;;;;;;4.68;1.92;;;;;;;20.99;58.29;101332.81;4939401;29;20038;-66
2021/08/10 09:45:43;;;;;;;7.75;2.10;;;;;;;21.02;58.41;101337.75;4952356;29;20066;-66
2021/08/10 09:48:16;;;;;;;7.53;2.08;;;;;;;21.01;57.97;101336.13;4952241;29;20520;-66
2021/08/10 09:50:42;;;;;;;4.35;2.30;;;;;;;21.02;57.90;101342.28;4946294;29;20046;-67
2021/08/10 09:53:18;;;;;;;5.03;2.00;;;;;;;20.98;57.99;101352.47;4959441;28;20453;-66
2021/08/10 09:55:54;;;;;;;4.60;2.08;;;;;;;20.97;58.28;101350.00;4945770;29;20128;-66
2021/08/10 09:58:20;;;;;;;4.20;2.20;;;;;;;20.99;58.03;101347.97;4946165;29;20513;-66
2021/08/10 10:00:46;;;;;;;6.70;2.60;;;;;;;20.97;58.09;101345.50;4951089;29;20031;-66
2021/08/10 10:03:29;;;;;;;5.93;2.30;;;;;;;20.93;58.09;101352.25;4951555;29;20503;-66
2021/08/10 10:05:55;;;;;;;3.83;2.00;;;;;;;20.95;57.80;101344.88;4945816;29;20186;-66
2021/08/10 10:08:23;;;;;;;5.65;2.30;;;;;;;20.97;58.17;101352.69;4951437;29;20039;-66
2021/08/10 10:10:51;;;;;;;4.88;2.10;;;;;;;20.98;57.95;101354.31;4935068;29;20122;-66
2021/08/10 10:13:18;;;;;;;3.85;2.20;;;;;;;20.98;57.96;101357.81;4934282;29;20038;-66
2021/08/10 10:15:45;;;;;;;4.60;2.08;;;;;;;20.98;58.05;101359.66;4951642;29;20047;-66
2021/08/10 10:18:19;;;;;;;;;;;;;;;20.89;58.17;101367.00;5110233;27;20113;-65
2021/08/10 10:20:47;;;;;;;3.17;2.17;;;;;;;20.96;57.75;101361.69;5099946;28;19916;-66
2021/08/10 10:23:18;;;;;;;5.15;2.90;;;;;;;20.96;57.85;101364.38;5106697;28;20471;-66
2021/08/10 10:25:44;;;;;;;6.55;2.58;;;;;;;20.95;57.93;101363.53;5107149;28;20027;-65
2021/08/10 10:28:10;;;;;;;6.15;3.08;;;;;;;20.96;57.85;101367.03;5106469;28;20492;-66
2021/08/10 10:30:35;;;;;;;4.18;2.70;;;;;;;20.94;57.86;101378.72;5099885;28;20027;-66
2021/08/10 10:33:02;;;;;;;4.70;2.72;;;;;;;20.93;57.53;101374.41;5099639;28;20463;-67
2021/08/10 10:35:27;;;;;;;5.25;3.08;;;;;;;20.91;57.92;101379.09;5104030;28;20040;-66
2021/08/10 10:37:54;;;;;;;5.18;2.97;;;;;;;20.93;57.83;101384.25;5092968;28;20467;-66
2021/08/10 10:40:21;;;;;;;5.75;3.10;;;;;;;20.91;57.88;101379.09;5105300;28;20036;-65
2021/08/10 10:42:50;;;;;;;6.47;3.22;;;;;;;20.92;57.46;101375.44;5092117;28;20051;-65
2021/08/10 10:45:34;;;;;;;6.28;3.00;;;;;;;20.88;57.96;101379.50;5106814;28;20031;-66
2021/08/10 10:48:00;;;;;;;6.43;3.05;;;;;;;20.91;57.85;101379.09;5100621;28;20074;-65
2021/08/10 10:50:25;;;;;;;4.68;3.28;;;;;;;20.92;57.89;101385.28;5096119;28;20518;-66
2021/08/10 10:53:05;;;;;;;6.25;3.22;;;;;;;20.90;57.73;101387.31;5099142;28;20403;-65
2021/08/10 10:55:49;;;;;;;6.47;3.13;;;;;;;20.89;57.78;101385.66;5101743;28;20078;-66
2021/08/10 10:58:26;;;;;;;6.97;3.15;;;;;;;20.90;57.52;101381.97;5106310;28;20077;-66
2021/08/10 11:01:22;;;;;;;5.07;3.03;;;;;;;20.89;57.57;101388.31;5098583;28;20019;-66
2021/08/10 11:04:03;;;;;;;6.30;3.10;;;;;;;20.90;57.44;101381.97;5095660;28;20036;-66
2021/08/10 11:06:35;;;;;;;4.50;2.83;;;;;;;20.93;57.30;101373.59;5098736;28;20031;-65
2021/08/10 11:09:02;;;;;;;5.97;3.35;;;;;;;20.94;57.06;101380.56;5098181;28;20036;-65
2021/08/10 11:11:44;;;;;;;5.43;3.25;;;;;;;20.90;57.45;101380.13;5105913;28;20040;-65
2021/08/10 11:14:37;;;;;;;4.55;3.20;;;;;;;20.90;57.08;101376.63;5106266;28;20054;-66
2021/08/10 11:17:10;;;;;;;4.13;2.65;;;;;;;20.92;57.11;101383.44;5099284;28;20083;-65
2021/08/10 11:19:37;;;;;;;6.50;2.90;;;;;;;20.94;57.12;101386.72;5099468;28;20024;-66
2021/08/10 11:22:32;;;;;;;3.72;2.60;;;;;;;20.90;57.02;101379.31;5105998;28;20054;-66
2021/08/10 11:25:01;;;;;;;6.00;3.35;;;;;;;20.96;56.80;101383.03;5096447;28;20097;-66
2021/08/10 11:27:43;;;;;;;4.47;2.60;;;;;;;20.92;56.69;101383.44;5104887;28;20386;-66
2021/08/10 11:30:21;;;;;;;6.22;2.95;;;;;;;20.93;56.58;101376.25;5085070;28;20028;-65